Time;durP1;ratioP1;P1;durP2;ratioP2;P2;SDS_P1;SDS_P2;PMS_P1;PMS_P2;Temp;Humidity;BMP_temperature;BMP_pressure;BME280_temperature;BME280_humidity;BME280_pressure;Samples;Min_cycle;Max_cycle;Signal;HPM_P1;HPM_P2
2022/07/14 00:01:25;;;;;;;0.00;0.00;;;15.00;99.90;;;;;;5071019;28;20041;-79
2022/07/14 00:03:50;;;;;;;0.00;0.00;;;14.90;99.90;;;;;;5070968;28;20447;-78
2022/07/14 00:06:16;;;;;;;0.00;0.00;;;14.80;99.90;;;;;;5087395;28;20048;-79
2022/07/14 00:08:45;;;;;;;0.00;0.00;;;14.80;99.90;;;;;;5087289;28;20052;-78
2022/07/14 00:11:11;;;;;;;0.00;0.00;;;14.70;99.90;;;;;;5070342;28;20048;-78
2022/07/14 00:13:38;;;;;;;0.00;0.00;;;14.80;99.90;;;;;;5070438;28;20048;-78
2022/07/14 00:16:04;;;;;;;0.00;0.00;;;14.70;99.90;;;;;;5070497;28;20053;-78
2022/07/14 00:18:30;;;;;;;0.00;0.00;;;14.80;99.90;;;;;;5087149;28;20514;-78
2022/07/14 00:20:55;;;;;;;0.00;0.00;;;14.80;99.90;;;;;;5087361;28;20095;-79
2022/07/14 00:23:24;;;;;;;0.00;0.00;;;14.80;99.90;;;;;;5087180;28;20370;-78
2022/07/14 00:25:50;;;;;;;0.00;0.00;;;14.70;99.90;;;;;;5070613;28;20059;-79
2022/07/14 00:28:16;;;;;;;0.00;0.00;;;14.70;99.90;;;;;;5087002;28;20045;-78
2022/07/14 00:30:42;;;;;;;0.00;0.00;;;14.60;99.90;;;;;;5070362;28;20040;-78
2022/07/14 00:33:07;;;;;;;0.00;0.00;;;14.50;99.90;;;;;;5086724;28;20120;-78
2022/07/14 00:35:33;;;;;;;0.00;0.00;;;14.40;99.90;;;;;;5086903;28;20047;-78
2022/07/14 00:37:59;;;;;;;0.00;0.00;;;14.30;99.90;;;;;;5086785;28;20385;-78
2022/07/14 00:40:25;;;;;;;1.65;0.40;;;14.30;99.90;;;;;;5087268;28;20148;-78
2022/07/14 00:42:51;;;;;;;0.00;0.00;;;14.30;99.90;;;;;;5069921;28;20559;-78
2022/07/14 00:45:20;;;;;;;0.00;0.00;;;14.20;99.90;;;;;;5086820;28;20041;-79
2022/07/14 00:47:47;;;;;;;0.00;0.00;;;14.30;99.90;;;;;;5086904;28;20384;-78
2022/07/14 00:50:15;;;;;;;0.00;0.00;;;14.30;99.90;;;;;;5086151;28;20488;-78
2022/07/14 00:52:43;;;;;;;0.00;0.00;;;14.30;99.90;;;;;;5069479;28;20136;-78
2022/07/14 00:55:10;;;;;;;0.00;0.00;;;14.40;99.90;;;;;;5036464;28;20056;-79
2022/07/14 00:57:36;;;;;;;0.00;0.00;;;14.30;99.90;;;;;;5069268;28;20083;-78
2022/07/14 01:00:08;;;;;;;0.00;0.00;;;14.30;99.90;;;;;;5034423;28;20105;-78
2022/07/14 01:02:34;;;;;;;0.00;0.00;;;14.20;99.90;;;;;;5084953;28;20045;-78
2022/07/14 01:05:00;;;;;;;0.00;0.00;;;14.10;99.90;;;;;;5087108;28;20051;-79
2022/07/14 01:07:25;;;;;;;0.00;0.00;;;14.00;99.90;;;;;;5069498;28;20056;-79
2022/07/14 01:09:51;;;;;;;0.00;0.00;;;13.90;99.90;;;;;;5086325;28;20037;-78
2022/07/14 01:12:17;;;;;;;0.00;0.00;;;13.90;99.90;;;;;;5086016;28;20134;-78
2022/07/14 01:14:43;;;;;;;0.00;0.00;;;13.80;99.90;;;;;;5069594;28;20049;-78
2022/07/14 01:17:09;;;;;;;0.00;0.00;;;13.80;99.90;;;;;;5086405;28;20056;-78
2022/07/14 01:19:35;;;;;;;0.00;0.00;;;13.80;99.90;;;;;;5085925;28;20489;-78
2022/07/14 01:22:01;;;;;;;0.00;0.00;;;13.90;99.90;;;;;;5086047;28;20057;-78
2022/07/14 01:24:28;;;;;;;0.00;0.00;;;13.80;99.90;;;;;;5069614;28;20191;-78
2022/07/14 01:26:54;;;;;;;0.00;0.00;;;13.70;99.90;;;;;;5086145;28;20052;-78
2022/07/14 01:29:20;;;;;;;0.00;0.00;;;13.70;99.90;;;;;;5036034;28;20132;-78
2022/07/14 01:31:46;;;;;;;0.00;0.00;;;13.70;99.90;;;;;;5085900;28;20524;-79
2022/07/14 01:34:12;;;;;;;0.00;0.00;;;13.80;99.90;;;;;;5086074;28;20118;-78
2022/07/14 01:36:38;;;;;;;0.30;0.30;;;13.60;99.90;;;;;;5085944;28;20084;-78
2022/07/14 01:39:05;;;;;;;0.00;0.00;;;13.70;99.90;;;;;;5085863;28;20045;-78
2022/07/14 01:41:32;;;;;;;0.00;0.00;;;13.70;99.90;;;;;;5069183;28;20049;-78
2022/07/14 01:43:58;;;;;;;0.00;0.00;;;13.60;99.90;;;;;;5086297;28;20053;-78
2022/07/14 01:46:24;;;;;;;0.00;0.00;;;13.50;99.90;;;;;;5086064;28;20394;-78
2022/07/14 01:48:49;;;;;;;0.52;0.20;;;13.60;99.90;;;;;;5086005;28;20045;-78
2022/07/14 01:51:16;;;;;;;0.00;0.00;;;13.60;99.90;;;;;;5085496;28;20139;-78
2022/07/14 01:53:41;;;;;;;0.00;0.00;;;13.60;99.90;;;;;;5085660;28;20041;-78
2022/07/14 01:56:08;;;;;;;0.00;0.00;;;13.70;99.90;;;;;;5069067;28;20068;-78
2022/07/14 01:58:34;;;;;;;0.00;0.00;;;13.70;99.90;;;;;;5086165;28;20110;-78
2022/07/14 02:03:45;;;;;;;0.10;0.00;;;13.60;99.90;;;;;;5086471;28;20053;-78
2022/07/14 02:06:11;;;;;;;0.00;0.00;;;13.60;99.90;;;;;;5069114;28;20057;-78
2022/07/14 02:08:37;;;;;;;0.00;0.00;;;13.60;99.90;;;;;;5086518;28;20049;-78
2022/07/14 02:13:47;;;;;;;0.00;0.00;;;13.60;99.90;;;;;;5088709;28;20156;-79
2022/07/14 02:16:13;;;;;;;0.00;0.00;;;13.50;99.90;;;;;;5089615;28;20544;-78
2022/07/14 02:18:38;;;;;;;0.00;0.00;;;13.50;99.90;;;;;;5089626;28;20041;-78
2022/07/14 02:21:04;;;;;;;0.00;0.00;;;13.50;99.90;;;;;;5089197;28;20492;-78
2022/07/14 02:23:30;;;;;;;0.00;0.00;;;13.50;99.90;;;;;;5089573;28;20048;-78
2022/07/14 02:25:55;;;;;;;0.00;0.00;;;13.40;99.90;;;;;;5072651;28;20088;-79
2022/07/14 02:28:21;;;;;;;0.00;0.00;;;13.40;99.90;;;;;;5088521;28;20057;-78
2022/07/14 02:30:47;;;;;;;0.00;0.00;;;13.40;99.90;;;;;;5072375;28;20166;-78
2022/07/14 02:33:12;;;;;;;0.00;0.00;;;13.40;99.90;;;;;;5072349;28;20045;-78
2022/07/14 02:35:38;;;;;;;0.00;0.00;;;13.40;99.90;;;;;;5089228;28;20044;-78
2022/07/14 02:38:04;;;;;;;0.00;0.00;;;13.30;99.90;;;;;;5089403;28;20485;-78
2022/07/14 02:40:30;;;;;;;0.00;0.00;;;13.20;99.90;;;;;;5088879;28;20500;-78
2022/07/14 02:42:56;;;;;;;0.00;0.00;;;13.10;99.90;;;;;;5089290;28;20135;-78
2022/07/14 02:45:22;;;;;;;0.52;0.03;;;13.00;99.90;;;;;;5088970;28;20051;-78
2022/07/14 02:47:48;;;;;;;0.00;0.00;;;12.90;99.90;;;;;;5088907;28;20455;-78
2022/07/14 02:50:13;;;;;;;0.00;0.00;;;12.90;99.90;;;;;;5071825;28;20053;-78
2022/07/14 02:52:39;;;;;;;0.00;0.00;;;12.90;99.90;;;;;;5072181;28;20045;-78
2022/07/14 02:55:06;;;;;;;0.00;0.00;;;12.80;99.90;;;;;;5088843;28;20040;-78
2022/07/14 02:57:32;;;;;;;3.20;0.60;;;12.80;99.90;;;;;;5088614;28;20445;-79
2022/07/14 02:59:58;;;;;;;0.00;0.00;;;12.90;99.90;;;;;;5088874;28;20132;-79
2022/07/14 03:02:25;;;;;;;0.00;0.00;;;12.80;99.90;;;;;;5055814;28;20088;-78
2022/07/14 03:04:50;;;;;;;0.20;0.10;;;12.80;99.90;;;;;;5038501;28;20511;-78
2022/07/14 03:07:16;;;;;;;0.00;0.00;;;12.80;99.90;;;;;;5038505;28;20128;-78
2022/07/14 03:09:42;;;;;;;0.00;0.00;;;12.90;99.90;;;;;;5088483;28;20045;-78
2022/07/14 03:12:07;;;;;;;0.10;0.08;;;12.90;99.90;;;;;;5088487;28;20041;-78
2022/07/14 03:14:33;;;;;;;0.00;0.00;;;12.90;99.90;;;;;;5088581;28;20037;-79
2022/07/14 03:16:59;;;;;;;0.17;0.17;;;13.00;99.90;;;;;;5071572;28;20045;-79
2022/07/14 03:19:24;;;;;;;0.00;0.00;;;12.90;99.90;;;;;;5088397;28;20084;-78
2022/07/14 03:21:50;;;;;;;0.28;0.20;;;12.90;99.90;;;;;;5088420;28;20086;-78
2022/07/14 03:24:16;;;;;;;0.00;0.00;;;12.80;99.90;;;;;;5070255;28;20072;-79
2022/07/14 03:26:41;;;;;;;0.00;0.00;;;12.80;99.90;;;;;;5088098;28;20534;-78
2022/07/14 03:29:07;;;;;;;0.00;0.00;;;12.80;99.90;;;;;;5071276;28;20045;-78
2022/07/14 03:31:33;;;;;;;0.65;0.20;;;12.80;99.90;;;;;;5088203;28;20048;-78
2022/07/14 03:33:59;;;;;;;0.00;0.00;;;12.70;99.90;;;;;;5071204;28;20396;-78
2022/07/14 03:36:25;;;;;;;0.00;0.00;;;12.60;99.90;;;;;;5088113;28;20112;-78
2022/07/14 03:38:51;;;;;;;0.03;0.00;;;12.70;99.90;;;;;;5088069;28;20056;-78
2022/07/14 03:41:16;;;;;;;0.00;0.00;;;12.70;99.90;;;;;;5088290;28;20084;-78
2022/07/14 03:43:43;;;;;;;0.00;0.00;;;12.70;99.90;;;;;;5087984;28;20052;-79
2022/07/14 03:46:10;;;;;;;0.00;0.00;;;12.70;99.90;;;;;;5088072;28;20045;-79
2022/07/14 03:48:35;;;;;;;0.00;0.00;;;12.70;99.90;;;;;;5087359;28;20563;-78
2022/07/14 03:51:02;;;;;;;0.10;0.00;;;12.60;99.90;;;;;;5087227;28;20053;-78
2022/07/14 03:53:30;;;;;;;0.00;0.00;;;12.60;99.90;;;;;;5087220;28;20196;-78
2022/07/14 03:55:57;;;;;;;0.00;0.00;;;12.70;99.90;;;;;;5087776;28;20056;-78
2022/07/14 03:58:23;;;;;;;0.00;0.00;;;12.70;99.90;;;;;;5087643;28;20142;-78
2022/07/14 04:00:48;;;;;;;0.00;0.00;;;12.60;99.90;;;;;;5087642;28;20147;-78
2022/07/14 04:03:14;;;;;;;0.00;0.00;;;12.60;99.90;;;;;;5070672;28;20040;-78
2022/07/14 04:05:40;;;;;;;0.08;0.08;;;12.60;99.90;;;;;;5070740;28;20045;-78
2022/07/14 04:08:06;;;;;;;0.20;0.20;;;12.60;99.90;;;;;;5087403;28;20511;-78
2022/07/14 04:10:31;;;;;;;0.00;0.00;;;12.60;99.90;;;;;;5070224;28;20056;-78
2022/07/14 04:12:57;;;;;;;0.10;0.10;;;12.70;99.90;;;;;;5087003;28;20112;-78
2022/07/14 04:15:27;;;;;;;0.00;0.00;;;12.70;99.90;;;;;;5070952;28;20051;-78
2022/07/14 04:17:53;;;;;;;0.00;0.00;;;12.70;99.90;;;;;;5070314;28;20045;-78
2022/07/14 04:20:19;;;;;;;0.00;0.00;;;12.70;99.90;;;;;;5087116;28;20056;-78
2022/07/14 04:22:45;;;;;;;0.20;0.03;;;12.70;99.90;;;;;;5070229;28;20044;-78
2022/07/14 04:25:12;;;;;;;0.00;0.00;;;12.60;99.90;;;;;;5070106;28;20049;-78
2022/07/14 04:27:38;;;;;;;0.00;0.00;;;12.60;99.90;;;;;;5054159;28;20053;-78
2022/07/14 04:30:04;;;;;;;0.00;0.00;;;12.60;99.90;;;;;;5087148;28;20053;-78
2022/07/14 04:32:30;;;;;;;0.00;0.00;;;12.60;99.90;;;;;;5086770;28;20091;-78
2022/07/14 04:34:56;;;;;;;0.10;0.10;;;12.60;99.90;;;;;;5086863;28;20052;-78
2022/07/14 04:37:22;;;;;;;0.00;0.00;;;12.50;99.90;;;;;;5086745;28;20105;-78
2022/07/14 04:39:48;;;;;;;0.00;0.00;;;12.50;99.90;;;;;;5086684;28;20096;-78
2022/07/14 04:42:14;;;;;;;0.00;0.00;;;12.50;99.90;;;;;;5069722;28;20194;-78
2022/07/14 04:44:41;;;;;;;0.00;0.00;;;12.40;99.90;;;;;;5087128;28;20041;-78
2022/07/14 04:47:07;;;;;;;0.00;0.00;;;12.50;99.90;;;;;;5069778;28;20135;-79
2022/07/14 04:52:17;;;;;;;0.00;0.00;;;12.50;99.90;;;;;;5086474;28;20107;-79
2022/07/14 04:54:45;;;;;;;0.00;0.00;;;12.50;99.90;;;;;;5086162;28;20061;-79
2022/07/14 04:57:12;;;;;;;0.00;0.00;;;12.60;99.90;;;;;;5086014;28;20060;-79
2022/07/14 04:59:38;;;;;;;0.00;0.00;;;12.70;99.90;;;;;;5069513;28;20081;-79
2022/07/14 05:02:04;;;;;;;0.00;0.00;;;12.80;99.90;;;;;;5086159;28;20146;-79
2022/07/14 05:04:30;;;;;;;0.00;0.00;;;12.80;99.90;;;;;;5069423;28;20618;-78
2022/07/14 05:06:57;;;;;;;0.00;0.00;;;12.80;99.90;;;;;;5069324;28;20060;-78
2022/07/14 05:09:25;;;;;;;0.00;0.00;;;12.90;99.90;;;;;;5086377;28;20088;-78
2022/07/14 05:11:52;;;;;;;0.00;0.00;;;12.90;99.90;;;;;;5086751;28;20126;-79
2022/07/14 05:14:17;;;;;;;0.00;0.00;;;12.80;99.90;;;;;;5086324;28;20040;-79
2022/07/14 05:16:44;;;;;;;0.00;0.00;;;12.90;99.90;;;;;;5069679;28;20555;-79
2022/07/14 05:19:11;;;;;;;0.15;0.15;;;13.00;99.90;;;;;;5086253;28;20052;-79
2022/07/14 05:21:37;;;;;;;0.00;0.00;;;13.00;99.90;;;;;;5069061;28;20080;-79
2022/07/14 05:24:03;;;;;;;0.00;0.00;;;13.10;99.90;;;;;;5086252;28;20103;-80
2022/07/14 05:26:29;;;;;;;0.00;0.00;;;13.10;99.90;;;;;;5069594;28;20048;-79
2022/07/14 05:28:55;;;;;;;0.00;0.00;;;13.10;99.90;;;;;;5069329;28;20044;-79
2022/07/14 05:31:20;;;;;;;0.10;0.10;;;13.20;99.90;;;;;;5069148;28;20138;-79
2022/07/14 05:33:47;;;;;;;0.00;0.00;;;13.20;99.90;;;;;;5086124;28;20095;-79
2022/07/14 05:36:13;;;;;;;0.00;0.00;;;13.30;99.90;;;;;;5085984;28;20052;-79
2022/07/14 05:38:38;;;;;;;0.00;0.00;;;13.30;99.90;;;;;;5085983;28;20037;-78
2022/07/14 05:41:04;;;;;;;0.00;0.00;;;13.50;99.90;;;;;;5086530;28;20045;-78
2022/07/14 05:43:31;;;;;;;0.00;0.00;;;13.60;99.90;;;;;;5086098;28;20481;-78
2022/07/14 05:46:07;;;;;;;0.00;0.00;;;13.80;99.90;;;;;;5085693;28;20462;-79
2022/07/14 05:48:33;;;;;;;0.00;0.00;;;14.00;99.90;;;;;;5071510;28;20049;-78
2022/07/14 05:51:04;;;;;;;0.00;0.00;;;14.10;99.90;;;;;;5089737;28;20126;-79
2022/07/14 05:53:30;;;;;;;1.65;0.45;;;14.30;99.90;;;;;;5090181;28;20377;-79
2022/07/14 05:55:55;;;;;;;0.00;0.00;;;14.50;99.90;;;;;;5089953;28;20052;-79
2022/07/14 05:58:21;;;;;;;0.00;0.00;;;14.70;99.90;;;;;;5073233;28;20057;-79
2022/07/14 06:00:47;;;;;;;0.00;0.00;;;14.90;99.90;;;;;;5073304;28;20052;-79
2022/07/14 06:03:13;;;;;;;0.00;0.00;;;15.00;99.90;;;;;;5089697;28;20044;-79
2022/07/14 06:05:39;;;;;;;0.00;0.00;;;15.10;99.90;;;;;;5089941;28;20484;-79
2022/07/14 06:08:04;;;;;;;0.00;0.00;;;15.10;99.90;;;;;;5073069;28;20060;-79
2022/07/14 06:10:30;;;;;;;0.00;0.00;;;15.20;99.90;;;;;;5089659;28;20041;-79
2022/07/14 06:12:55;;;;;;;0.00;0.00;;;15.30;99.90;;;;;;5089346;28;20044;-79
2022/07/14 06:15:21;;;;;;;0.00;0.00;;;15.40;99.90;;;;;;5089679;28;20037;-79
2022/07/14 06:17:47;;;;;;;0.00;0.00;;;15.50;99.90;;;;;;5039276;28;20507;-79
2022/07/14 06:20:13;;;;;;;0.00;0.00;;;15.60;99.90;;;;;;5089716;28;20406;-79
2022/07/14 06:22:39;;;;;;;0.13;0.13;;;15.60;99.90;;;;;;5089692;28;20048;-79
2022/07/14 06:25:05;;;;;;;0.15;0.10;;;15.70;99.90;;;;;;5089469;28;20053;-79
2022/07/14 06:27:31;;;;;;;0.00;0.00;;;15.70;99.90;;;;;;5089487;28;20044;-79
2022/07/14 06:29:56;;;;;;;0.00;0.00;;;15.70;99.90;;;;;;5089258;28;20489;-79
2022/07/14 06:32:23;;;;;;;0.00;0.00;;;15.70;99.90;;;;;;5089079;28;20087;-79
2022/07/14 06:34:49;;;;;;;0.00;0.00;;;15.70;99.90;;;;;;5089154;28;20128;-79
2022/07/14 06:37:15;;;;;;;0.57;0.00;;;15.80;99.90;;;;;;5072381;28;20053;-79
2022/07/14 06:39:41;;;;;;;0.00;0.00;;;15.90;99.90;;;;;;5089090;28;20048;-79
2022/07/14 06:42:07;;;;;;;0.00;0.00;;;15.90;99.90;;;;;;5072308;28;20056;-79
2022/07/14 06:44:33;;;;;;;0.00;0.00;;;16.00;99.90;;;;;;5089216;28;20122;-79
2022/07/14 06:46:59;;;;;;;0.00;0.00;;;16.10;99.90;;;;;;5089090;28;20048;-79
2022/07/14 06:49:25;;;;;;;0.00;0.00;;;16.20;99.90;;;;;;5089087;28;20401;-79
2022/07/14 06:51:51;;;;;;;0.00;0.00;;;16.20;99.90;;;;;;5071365;28;20045;-79
2022/07/14 06:54:16;;;;;;;0.00;0.00;;;16.20;99.90;;;;;;5089125;28;20052;-79
2022/07/14 06:56:42;;;;;;;0.00;0.00;;;16.30;99.90;;;;;;5072019;28;20049;-79
2022/07/14 06:59:08;;;;;;;0.00;0.00;;;16.40;99.90;;;;;;5088649;28;20037;-79
2022/07/14 07:01:34;;;;;;;0.00;0.00;;;16.50;99.90;;;;;;5088838;28;20481;-80
2022/07/14 07:04:00;;;;;;;0.00;0.00;;;16.60;99.90;;;;;;5071844;28;20088;-80
2022/07/14 07:06:44;;;;;;;0.00;0.00;;;16.70;99.90;;;;;;5071789;28;20052;-80
2022/07/14 07:09:11;;;;;;;0.00;0.00;;;16.80;99.90;;;;;;5088944;28;20049;-80
2022/07/14 07:11:37;;;;;;;0.00;0.00;;;16.90;99.90;;;;;;5071676;28;20056;-80
2022/07/14 07:14:03;;;;;;;0.00;0.00;;;17.00;99.90;;;;;;5088645;28;20045;-79
2022/07/14 07:16:29;;;;;;;0.00;0.00;;;17.00;99.90;;;;;;5089179;28;20048;-79
2022/07/14 07:18:55;;;;;;;0.00;0.00;;;17.10;99.90;;;;;;5088543;28;20106;-79
2022/07/14 07:21:20;;;;;;;0.00;0.00;;;17.10;99.90;;;;;;5088663;28;20044;-79
2022/07/14 07:23:50;;;;;;;0.00;0.00;;;17.10;99.90;;;;;;5088628;28;20098;-80
2022/07/14 07:26:17;;;;;;;0.00;0.00;;;17.10;99.90;;;;;;5088377;28;20097;-80
2022/07/14 07:28:43;;;;;;;0.00;0.00;;;17.10;99.90;;;;;;5087955;28;20444;-79
2022/07/14 07:31:09;;;;;;;0.00;0.00;;;17.00;99.90;;;;;;5071047;28;20045;-80
2022/07/14 07:33:35;;;;;;;0.00;0.00;;;17.00;99.90;;;;;;5087966;28;20186;-79
2022/07/14 07:36:01;;;;;;;0.00;0.00;;;16.90;99.90;;;;;;5071359;28;20057;-79
2022/07/14 07:38:27;;;;;;;0.10;0.00;;;16.90;99.90;;;;;;5088137;28;20045;-80
2022/07/14 07:40:53;;;;;;;0.00;0.00;;;17.00;99.90;;;;;;5071124;28;20139;-80
2022/07/14 07:43:22;;;;;;;0.00;0.00;;;17.10;99.90;;;;;;5070921;28;20056;-80
2022/07/14 07:45:49;;;;;;;0.65;0.20;;;17.20;99.90;;;;;;5088598;28;20040;-80
2022/07/14 07:48:15;;;;;;;0.00;0.00;;;17.10;99.90;;;;;;5070944;28;20053;-79
2022/07/14 07:50:42;;;;;;;0.00;0.00;;;17.10;99.90;;;;;;5037557;28;20103;-79
2022/07/14 07:53:09;;;;;;;0.00;0.00;;;16.90;99.90;;;;;;5070874;28;20045;-80
2022/07/14 07:55:35;;;;;;;0.00;0.00;;;16.80;99.90;;;;;;5070861;28;20542;-80
2022/07/14 07:58:00;;;;;;;0.00;0.00;;;16.90;99.90;;;;;;5088151;28;20041;-79
2022/07/14 08:00:27;;;;;;;0.00;0.00;;;17.20;99.90;;;;;;5087968;28;20080;-80
2022/07/14 08:02:54;;;;;;;0.15;0.15;;;17.30;99.90;;;;;;5088047;28;20048;-79
2022/07/14 08:05:22;;;;;;;0.00;0.00;;;17.50;99.90;;;;;;5070838;28;20370;-79
2022/07/14 08:07:49;;;;;;;0.00;0.00;;;17.80;99.90;;;;;;5070789;28;20049;-80
2022/07/14 08:10:15;;;;;;;0.00;0.00;;;18.00;99.90;;;;;;5086774;28;20106;-80
2022/07/14 08:12:42;;;;;;;0.00;0.00;;;18.00;99.90;;;;;;5087336;28;20045;-80
2022/07/14 08:15:08;;;;;;;0.00;0.00;;;17.90;99.90;;;;;;5087447;28;20463;-80
2022/07/14 08:17:34;;;;;;;0.15;0.00;;;17.80;99.90;;;;;;5087627;28;20095;-80
2022/07/14 08:20:00;;;;;;;0.00;0.00;;;18.00;99.90;;;;;;5087262;28;20080;-80
2022/07/14 08:22:27;;;;;;;0.00;0.00;;;18.20;99.90;;;;;;5087308;28;20037;-79
2022/07/14 08:24:54;;;;;;;0.00;0.00;;;18.40;99.90;;;;;;5070169;28;20135;-80
2022/07/14 08:27:20;;;;;;;0.00;0.00;;;18.60;99.90;;;;;;5070445;28;20056;-79
2022/07/14 08:29:46;;;;;;;0.00;0.00;;;18.80;99.90;;;;;;5087014;28;20049;-79
2022/07/14 08:32:12;;;;;;;0.00;0.00;;;18.90;99.90;;;;;;5070304;28;20041;-79
2022/07/14 08:34:37;;;;;;;0.10;0.10;;;19.10;99.90;;;;;;5036852;28;20041;-79
2022/07/14 08:37:05;;;;;;;4.78;0.70;;;19.30;99.90;;;;;;5087015;28;20170;-79
2022/07/14 08:39:31;;;;;;;0.00;0.00;;;19.40;99.90;;;;;;5069967;28;20366;-80
2022/07/14 08:42:01;;;;;;;0.00;0.00;;;19.50;99.90;;;;;;5086932;28;20049;-80
2022/07/14 08:44:28;;;;;;;0.00;0.00;;;19.50;99.90;;;;;;5086850;28;20555;-79
2022/07/14 08:46:55;;;;;;;0.15;0.15;;;19.40;99.90;;;;;;5086867;28;20053;-79
2022/07/14 08:49:21;;;;;;;0.00;0.00;;;19.30;99.90;;;;;;5086816;28;20084;-79
2022/07/14 08:51:49;;;;;;;0.00;0.00;;;19.40;99.90;;;;;;5085900;28;20527;-79
2022/07/14 08:54:15;;;;;;;1.35;0.70;;;19.60;99.90;;;;;;5069738;28;20059;-80
2022/07/14 08:56:42;;;;;;;0.00;0.00;;;19.50;99.90;;;;;;5086569;28;20041;-80
2022/07/14 08:59:08;;;;;;;0.00;0.00;;;19.30;99.90;;;;;;5069666;28;20080;-80
2022/07/14 09:01:34;;;;;;;0.00;0.00;;;19.10;99.90;;;;;;5086550;28;20041;-80
2022/07/14 09:04:01;;;;;;;0.00;0.00;;;19.00;99.90;;;;;;5086491;28;20127;-79
2022/07/14 09:06:54;;;;;;;0.00;0.00;;;19.10;99.90;;;;;;5086105;28;20469;-79
2022/07/14 09:09:31;;;;;;;0.00;0.00;;;19.40;99.90;;;;;;5052047;28;20103;-79
2022/07/14 09:12:01;;;;;;;0.00;0.00;;;19.70;99.90;;;;;;5086200;28;20045;-79
2022/07/14 09:14:29;;;;;;;0.00;0.00;;;20.00;99.90;;;;;;5086321;28;20140;-79
2022/07/14 09:17:15;;;;;;;0.20;0.15;;;20.20;99.90;;;;;;5069404;28;20048;-79
2022/07/14 09:20:10;;;;;;;0.00;0.00;;;20.30;99.90;;;;;;5086335;28;20441;-79
2022/07/14 09:22:41;;;;;;;0.00;0.00;;;20.40;99.90;;;;;;5068370;28;20495;-80
2022/07/14 09:25:17;;;;;;;0.00;0.00;;;20.50;99.70;;;;;;5086086;28;20488;-80
2022/07/14 09:27:48;;;;;;;0.00;0.00;;;20.50;99.90;;;;;;5069383;28;20049;-80
2022/07/14 09:30:15;;;;;;;0.00;0.00;;;20.50;99.20;;;;;;5086671;28;20051;-80
2022/07/14 09:32:47;;;;;;;0.00;0.00;;;20.50;97.40;;;;;;5085968;28;20040;-80
2022/07/14 09:35:17;;;;;;;0.00;0.00;;;20.60;98.10;;;;;;5086263;28;20052;-80
2022/07/14 09:37:43;;;;;;;0.00;0.00;;;20.50;96.90;;;;;;5069258;28;20053;-80
2022/07/14 09:40:20;;;;;;;0.00;0.00;;;20.60;96.80;;;;;;5086382;28;20048;-80
2022/07/14 09:42:53;;;;;;;0.00;0.00;;;20.60;96.10;;;;;;5069255;28;20525;-80
2022/07/14 09:45:28;;;;;;;0.00;0.00;;;20.70;97.40;;;;;;5069773;28;20057;-80
2022/07/14 09:47:56;;;;;;;0.00;0.00;;;20.80;98.20;;;;;;5069247;28;20052;-80
2022/07/14 09:50:37;;;;;;;0.00;0.00;;;20.90;98.50;;;;;;5052071;28;20096;-80
2022/07/14 09:53:13;;;;;;;0.00;0.00;;;20.90;97.40;;;;;;5085727;28;20381;-80
2022/07/14 09:55:43;;;;;;;0.00;0.00;;;20.90;98.00;;;;;;5086127;28;20056;-80
2022/07/14 09:58:10;;;;;;;0.00;0.00;;;20.80;97.40;;;;;;5086052;28;20049;-80
2022/07/14 10:00:36;;;;;;;0.05;0.05;;;20.80;96.40;;;;;;5085939;28;20057;-80
2022/07/14 10:03:04;;;;;;;0.00;0.00;;;20.80;99.30;;;;;;5085954;28;20064;-80
2022/07/14 10:05:33;;;;;;;0.00;0.00;;;20.90;97.90;;;;;;5069333;28;20060;-80
2022/07/14 10:08:04;;;;;;;0.00;0.00;;;20.90;96.80;;;;;;5069176;28;20113;-80
2022/07/14 10:10:34;;;;;;;0.00;0.00;;;20.90;98.70;;;;;;5068991;28;20060;-80
2022/07/14 10:13:00;;;;;;;0.00;0.00;;;20.90;99.60;;;;;;5068449;28;20041;-81
2022/07/14 10:15:26;;;;;;;0.00;0.00;;;20.90;98.10;;;;;;5085450;28;20045;-80
2022/07/14 10:17:56;;;;;;;0.00;0.00;;;20.90;98.50;;;;;;5085417;28;20511;-80
2022/07/14 10:20:23;;;;;;;0.00;0.00;;;20.90;97.60;;;;;;5085762;28;20057;-80
2022/07/14 10:22:50;;;;;;;0.00;0.00;;;20.80;96.30;;;;;;5085567;28;20052;-81
2022/07/14 10:25:15;;;;;;;0.00;0.00;;;20.80;95.90;;;;;;5085648;28;20132;-80
2022/07/14 10:27:42;;;;;;;0.00;0.00;;;20.80;97.30;;;;;;5085508;28;20136;-80
2022/07/14 10:30:09;;;;;;;0.00;0.00;;;20.90;97.50;;;;;;5069012;28;20408;-80
2022/07/14 10:33:01;;;;;;;0.00;0.00;;;20.90;96.30;;;;;;5085961;28;20481;-81
2022/07/14 10:35:47;;;;;;;0.00;0.00;;;20.90;97.90;;;;;;5055637;28;20059;-81
2022/07/14 10:38:49;;;;;;;0.00;0.00;;;20.90;98.00;;;;;;5072306;28;20055;-81
2022/07/14 10:41:31;;;;;;;0.00;0.00;;;20.90;98.70;;;;;;5089438;28;20045;-80
2022/07/14 10:44:06;;;;;;;0.00;0.00;;;20.80;98.60;;;;;;5072120;28;20501;-81
2022/07/14 10:46:44;;;;;;;0.00;0.00;;;20.80;97.30;;;;;;5072191;28;20045;-81
2022/07/14 10:49:12;;;;;;;0.00;0.00;;;20.70;96.90;;;;;;5088924;28;20053;-81
2022/07/14 10:51:52;;;;;;;10.13;0.55;;;20.60;96.10;;;;;;5088495;28;20061;-81
2022/07/14 10:54:27;;;;;;;0.00;0.00;;;20.60;98.40;;;;;;5071959;28;20052;-81
2022/07/14 10:57:14;;;;;;;0.20;0.13;;;20.60;98.10;;;;;;5072073;28;20056;-81
2022/07/14 10:59:41;;;;;;;0.00;0.00;;;20.60;97.90;;;;;;5072518;28;20158;-81
2022/07/14 11:02:13;;;;;;;0.00;0.00;;;20.60;98.30;;;;;;5088860;28;20496;-81
2022/07/14 11:04:59;;;;;;;0.00;0.00;;;20.70;97.90;;;;;;5072005;28;20574;-81
2022/07/14 11:07:46;;;;;;;0.00;0.00;;;20.60;98.70;;;;;;5071800;28;20049;-81
2022/07/14 11:10:11;;;;;;;0.00;0.00;;;20.60;96.80;;;;;;5088519;28;20045;-81
2022/07/14 11:13:03;;;;;;;0.00;0.00;;;20.70;98.70;;;;;;5071567;28;20099;-81
2022/07/14 11:15:50;;;;;;;0.00;0.00;;;20.80;98.10;;;;;;5088474;28;20053;-80
2022/07/14 11:18:24;;;;;;;0.00;0.00;;;20.80;97.50;;;;;;5071911;28;20069;-81
2022/07/14 11:21:25;;;;;;;0.00;0.00;;;20.80;99.30;;;;;;5089075;28;20049;-81
2022/07/14 11:23:52;;;;;;;0.00;0.00;;;20.80;98.20;;;;;;5037315;28;20049;-81
2022/07/14 11:26:34;;;;;;;0.20;0.10;;;20.80;97.40;;;;;;5036866;28;20452;-81
2022/07/14 11:29:02;;;;;;;0.00;0.00;;;20.80;96.90;;;;;;5020515;28;20619;-80
2022/07/14 11:31:41;;;;;;;0.00;0.00;;;20.80;97.30;;;;;;5036946;28;20064;-81
2022/07/14 11:37:04;;;;;;;0.00;0.00;;;20.90;97.40;;;;;;5037025;28;20053;-80
2022/07/14 11:39:47;;;;;;;0.00;0.00;;;21.00;98.80;;;;;;5020172;28;20539;-81
2022/07/14 11:42:16;;;;;;;0.00;0.00;;;21.10;98.40;;;;;;5036802;28;20448;-81
2022/07/14 11:44:43;;;;;;;0.00;0.00;;;21.20;98.00;;;;;;5036399;28;20053;-81
2022/07/14 11:47:09;;;;;;;0.00;0.00;;;21.30;98.20;;;;;;5036733;28;20045;-81
2022/07/14 11:49:35;;;;;;;0.00;0.00;;;21.30;97.60;;;;;;5020115;28;20519;-81
2022/07/14 11:52:04;;;;;;;0.00;0.00;;;21.30;97.00;;;;;;5036191;28;20114;-80
2022/07/14 11:54:29;;;;;;;0.00;0.00;;;21.30;97.60;;;;;;5036644;28;20053;-81
2022/07/14 11:57:10;;;;;;;0.00;0.00;;;21.30;96.90;;;;;;5036865;28;20103;-81
2022/07/14 11:59:39;;;;;;;0.00;0.00;;;21.20;96.80;;;;;;5071519;28;20531;-80
2022/07/14 12:02:17;;;;;;;0.00;0.00;;;21.10;96.90;;;;;;5071032;28;20385;-81
2022/07/14 12:04:57;;;;;;;0.00;0.00;;;21.20;97.40;;;;;;5088083;28;20442;-81
2022/07/14 12:07:41;;;;;;;0.00;0.00;;;21.20;97.90;;;;;;5087669;28;20048;-81
2022/07/14 12:10:08;;;;;;;0.00;0.00;;;21.20;97.20;;;;;;5071020;28;20095;-81
2022/07/14 12:12:41;;;;;;;0.43;0.10;;;21.20;98.40;;;;;;5070427;28;20037;-81
2022/07/14 12:15:07;;;;;;;0.00;0.00;;;21.20;97.80;;;;;;5070755;28;20556;-81
2022/07/14 12:17:46;;;;;;;0.00;0.00;;;21.20;99.80;;;;;;5087008;28;20488;-81
2022/07/14 12:20:13;;;;;;;0.00;0.00;;;21.20;98.10;;;;;;5087353;28;20048;-81
2022/07/14 12:22:54;;;;;;;0.00;0.00;;;21.40;98.70;;;;;;5087307;28;20049;-81
2022/07/14 12:25:28;;;;;;;0.00;0.00;;;21.60;97.80;;;;;;5071004;28;20498;-81
2022/07/14 12:27:55;;;;;;;0.00;0.00;;;21.90;96.60;;;;;;5087177;28;20049;-81
2022/07/14 12:30:21;;;;;;;0.00;0.00;;;22.20;98.40;;;;;;5070012;28;20063;-81
2022/07/14 12:32:54;;;;;;;0.00;0.00;;;22.50;97.00;;;;;;5086778;28;20075;-81
2022/07/14 12:35:23;;;;;;;0.05;0.03;;;22.70;96.20;;;;;;5087303;28;20480;-81
2022/07/14 12:37:51;;;;;;;0.20;0.15;;;22.90;95.70;;;;;;5087056;28;20055;-81
2022/07/14 12:40:18;;;;;;;0.00;0.00;;;23.40;96.10;;;;;;5086996;28;20091;-81
2022/07/14 12:42:45;;;;;;;0.22;0.20;;;23.50;93.10;;;;;;5070157;28;20063;-81
2022/07/14 12:45:11;;;;;;;0.55;0.10;;;23.30;92.30;;;;;;5086949;28;20100;-81
2022/07/14 12:47:50;;;;;;;0.00;0.00;;;22.90;93.80;;;;;;5070137;28;20112;-81
2022/07/14 12:50:21;;;;;;;3.30;0.38;;;22.50;93.20;;;;;;5086451;28;20064;-81
2022/07/14 12:52:57;;;;;;;0.00;0.00;;;22.20;93.40;;;;;;5069650;28;20101;-81
2022/07/14 12:55:38;;;;;;;0.05;0.00;;;22.00;93.60;;;;;;5086708;28;20048;-81
2022/07/14 12:58:09;;;;;;;0.00;0.00;;;21.90;94.70;;;;;;5086968;28;20499;-81
2022/07/14 13:00:36;;;;;;;0.00;0.00;;;21.80;95.20;;;;;;5069793;28;20048;-81
2022/07/14 13:03:19;;;;;;;0.00;0.00;;;21.70;95.50;;;;;;5069930;28;20063;-81
2022/07/14 13:05:53;;;;;;;0.00;0.00;;;21.70;96.30;;;;;;5069649;28;20052;-81